Time;durP1;ratioP1;P1;durP2;ratioP2;P2;SDS_P1;SDS_P2;PMS_P1;PMS_P2;Temp;Humidity;BMP_temperature;BMP_pressure;BME280_temperature;BME280_humidity;BME280_pressure;Samples;Min_cycle;Max_cycle;Signal;HPM_P1;HPM_P2
2021/12/07 00:03:12;;;;;;;58.83;11.00;;;;;1.60;95676.00;;;;8433580;28;20255;-73
2021/12/07 00:07:17;;;;;;;90.93;10.80;;;;;1.70;95674.00;;;;8439699;28;20832;-73
2021/12/07 00:11:20;;;;;;;91.00;11.80;;;;;1.80;95679.00;;;;8443897;28;20221;-73
2021/12/07 00:15:26;;;;;;;80.37;11.13;;;;;1.80;95673.00;;;;8445562;28;20238;-72
2021/12/07 00:19:29;;;;;;;63.23;10.00;;;;;1.80;95666.00;;;;8426793;28;20730;-73
2021/12/07 00:23:32;;;;;;;111.97;13.67;;;;;1.80;95659.00;;;;8403990;28;20262;-72
2021/12/07 00:27:37;;;;;;;104.47;12.73;;;;;1.80;95660.00;;;;8417837;28;20235;-69
2021/12/07 00:31:50;;;;;;;81.03;11.73;;;;;1.90;95667.00;;;;8441534;28;20233;-71
2021/12/07 00:35:53;;;;;;;119.00;13.10;;;;;2.00;95666.00;;;;8442161;28;20260;-73
2021/12/07 00:39:58;;;;;;;73.63;13.33;;;;;2.00;95672.00;;;;8436983;28;20232;-71
2021/12/07 00:44:02;;;;;;;76.53;11.83;;;;;1.90;95667.00;;;;8445386;28;20239;-72
2021/12/07 00:48:08;;;;;;;102.00;13.53;;;;;1.90;95664.00;;;;8438782;28;20302;-75
2021/12/07 00:52:12;;;;;;;84.47;13.20;;;;;1.90;95645.00;;;;8438591;28;20274;-73
2021/12/07 00:56:15;;;;;;;73.47;13.03;;;;;2.00;95655.00;;;;8435904;28;20310;-70
2021/12/07 01:00:19;;;;;;;77.17;14.23;;;;;2.00;95657.00;;;;8418638;28;20249;-73
2021/12/07 01:04:25;;;;;;;78.13;14.77;;;;;2.10;95650.00;;;;8437835;28;20572;-72
2021/12/07 01:08:53;;;;;;;134.73;17.50;;;;;2.20;95645.00;;;;8437698;28;20651;-73
2021/12/07 01:26:01;;;;;;;47.90;14.10;;;;;2.40;95633.00;;;;8431166;28;20630;-73
2021/12/07 01:30:11;;;;;;;61.83;15.50;;;;;2.40;95626.00;;;;8432241;28;20238;-70
2021/12/07 01:34:36;;;;;;;48.63;13.97;;;;;2.40;95620.00;;;;8436465;28;20257;-72
2021/12/07 01:47:51;;;;;;;57.67;15.50;;;;;2.30;95601.00;;;;8380613;28;20223;-71
2021/12/07 02:00:48;;;;;;;67.80;14.70;;;;;2.30;95587.00;;;;8425196;28;20852;-72
2021/12/07 02:04:52;;;;;;;63.67;16.93;;;;;2.30;95589.00;;;;8431271;28;20708;-72
2021/12/07 02:08:55;;;;;;;59.67;16.53;;;;;2.30;95603.00;;;;8431225;28;20239;-70
2021/12/07 02:13:04;;;;;;;47.53;14.43;;;;;2.30;95594.00;;;;8401616;28;20346;-71
2021/12/07 02:17:09;;;;;;;53.93;15.30;;;;;2.30;95599.00;;;;8425988;28;20259;-69
2021/12/07 02:21:19;;;;;;;64.17;16.33;;;;;2.30;95592.00;;;;8442647;28;20667;-70
2021/12/07 02:25:22;;;;;;;79.13;17.03;;;;;2.40;95579.00;;;;8408072;28;20260;-70
2021/12/07 02:29:25;;;;;;;53.27;15.47;;;;;2.40;95580.00;;;;8404516;28;20252;-71
2021/12/07 02:33:29;;;;;;;67.90;16.10;;;;;2.40;95581.00;;;;8401197;28;20247;-73
2021/12/07 02:37:36;;;;;;;53.10;15.27;;;;;2.40;95570.00;;;;8420940;28;20245;-72
2021/12/07 02:41:40;;;;;;;63.67;15.73;;;;;2.40;95558.00;;;;8444239;28;20263;-72
2021/12/07 02:45:44;;;;;;;51.67;16.30;;;;;2.40;95559.00;;;;8444834;28;20311;-71
2021/12/07 02:49:48;;;;;;;55.00;15.07;;;;;2.40;95557.00;;;;8441863;28;20237;-72
2021/12/07 02:53:54;;;;;;;57.27;15.93;;;;;2.30;95552.00;;;;8435544;28;20664;-70
2021/12/07 02:57:57;;;;;;;53.33;16.17;;;;;2.20;95547.00;;;;8429947;28;20224;-70
2021/12/07 03:02:04;;;;;;;60.63;15.30;;;;;2.10;95543.00;;;;8446149;22;20647;-70
2021/12/07 03:06:16;;;;;;;36.03;13.50;;;;;2.00;95550.00;;;;8375005;28;20224;-71
2021/12/07 03:28:03;;;;;;;51.70;15.37;;;;;2.00;95547.00;;;;8371153;28;20705;-72
2021/12/07 03:32:07;;;;;;;62.17;15.80;;;;;2.00;95552.00;;;;8415865;28;20254;-72
2021/12/07 03:36:12;;;;;;;57.37;16.33;;;;;2.00;95549.00;;;;8411434;28;20228;-72
2021/12/07 03:40:16;;;;;;;54.90;15.60;;;;;2.10;95546.00;;;;8411831;28;20228;-71
2021/12/07 03:44:21;;;;;;;56.13;16.50;;;;;2.10;95551.00;;;;8409970;28;20243;-71
2021/12/07 03:48:24;;;;;;;47.07;15.10;;;;;2.10;95552.00;;;;8414531;28;20235;-73
2021/12/07 03:52:27;;;;;;;50.27;16.63;;;;;2.10;95559.00;;;;8412101;28;20236;-72
2021/12/07 03:56:31;;;;;;;51.90;15.30;;;;;2.10;95559.00;;;;8415725;28;20253;-69
2021/12/07 04:00:40;;;;;;;56.27;15.17;;;;;2.10;95560.00;;;;8411043;28;20257;-70
2021/12/07 04:04:43;;;;;;;44.30;14.30;;;;;2.10;95567.00;;;;8377494;28;20688;-71
2021/12/07 04:08:47;;;;;;;50.63;15.10;;;;;2.20;95564.00;;;;8378046;28;20261;-70
2021/12/07 04:12:50;;;;;;;43.00;13.30;;;;;2.10;95558.00;;;;8374149;28;20922;-71
2021/12/07 04:16:55;;;;;;;48.03;14.03;;;;;2.20;95561.00;;;;8380701;28;20271;-70
2021/12/07 04:21:01;;;;;;;34.30;12.57;;;;;2.20;95557.00;;;;8377921;28;20269;-70
2021/12/07 04:25:06;;;;;;;42.47;13.43;;;;;2.10;95548.00;;;;8378628;28;20253;-70
2021/12/07 04:29:09;;;;;;;39.67;13.30;;;;;2.20;95554.00;;;;8380324;28;20634;-70
2021/12/07 04:33:15;;;;;;;46.13;13.40;;;;;2.20;95551.00;;;;8379328;28;20268;-70
2021/12/07 04:37:18;;;;;;;39.27;12.13;;;;;2.10;95556.00;;;;8380548;28;20710;-69
2021/12/07 04:41:21;;;;;;;30.93;10.43;;;;;2.10;95543.00;;;;8379838;28;20221;-70
2021/12/07 04:45:34;;;;;;;23.73;10.00;;;;;2.10;95544.00;;;;8379802;28;20254;-71
2021/12/07 04:50:18;;;;;;;25.50;9.63;;;;;2.10;95542.00;;;;8374231;28;20258;-72
2021/12/07 04:58:41;;;;;;;27.77;9.33;;;;;2.10;95545.00;;;;8374167;28;20257;-70
2021/12/07 05:02:50;;;;;;;35.97;10.37;;;;;2.10;95548.00;;;;8376749;28;20259;-71
2021/12/07 05:07:07;;;;;;;27.80;9.97;;;;;2.10;95553.00;;;;8381459;28;20240;-71
2021/12/07 05:11:32;;;;;;;27.37;8.83;;;;;2.10;95559.00;;;;8373773;28;20213;-70
2021/12/07 05:15:59;;;;;;;35.63;9.23;;;;;2.10;95548.00;;;;8372107;28;20783;-70
2021/12/07 05:24:25;;;;;;;24.23;9.00;;;;;2.20;95545.00;;;;8372345;28;20266;-71
2021/12/07 05:41:46;;;;;;;20.37;8.23;;;;;2.20;95566.00;;;;8313683;28;20303;-69
2021/12/07 05:45:49;;;;;;;24.57;8.93;;;;;2.20;95555.00;;;;8370588;28;20903;-69
2021/12/07 05:49:53;;;;;;;18.07;7.60;;;;;2.20;95565.00;;;;8364623;28;20323;-70
2021/12/07 05:53:56;;;;;;;22.93;9.73;;;;;2.20;95564.00;;;;8370374;28;20627;-68
2021/12/07 05:58:01;;;;;;;22.03;8.87;;;;;2.20;95554.00;;;;8368953;28;20304;-69
2021/12/07 06:02:05;;;;;;;25.90;9.37;;;;;2.20;95553.00;;;;8376806;28;20690;-71
2021/12/07 06:06:09;;;;;;;23.67;9.60;;;;;2.30;95556.00;;;;8372426;28;20247;-72
2021/12/07 06:10:13;;;;;;;20.57;9.43;;;;;2.30;95551.00;;;;8372254;28;20267;-71
2021/12/07 06:14:19;;;;;;;26.30;9.70;;;;;2.30;95561.00;;;;8369245;28;20758;-71
2021/12/07 06:18:23;;;;;;;23.73;10.60;;;;;2.40;95564.00;;;;8378092;28;20220;-70
2021/12/07 06:22:26;;;;;;;27.80;11.37;;;;;2.40;95562.00;;;;8376399;28;20719;-71
2021/12/07 06:26:29;;;;;;;26.53;10.53;;;;;2.40;95565.00;;;;8375163;28;20230;-70
2021/12/07 06:30:34;;;;;;;19.90;9.43;;;;;2.50;95569.00;;;;8378486;28;20253;-68
2021/12/07 06:34:37;;;;;;;29.17;9.87;;;;;2.50;95577.00;;;;8377990;28;20324;-68
2021/12/07 06:38:40;;;;;;;22.97;9.70;;;;;2.50;95575.00;;;;8383340;28;20320;-68
2021/12/07 06:42:44;;;;;;;32.53;11.23;;;;;2.60;95589.00;;;;8377496;28;20223;-68
2021/12/07 06:46:48;;;;;;;32.73;10.57;;;;;2.60;95593.00;;;;8382217;28;20265;-67
2021/12/07 06:50:52;;;;;;;32.47;10.97;;;;;2.60;95591.00;;;;8382685;28;20233;-67
2021/12/07 06:54:57;;;;;;;30.50;11.67;;;;;2.70;95596.00;;;;8379860;28;20226;-67
2021/12/07 06:59:00;;;;;;;40.63;11.70;;;;;2.70;95588.00;;;;8382369;28;20323;-67
2021/12/07 07:03:05;;;;;;;35.70;9.90;;;;;2.70;95596.00;;;;8381292;28;20256;-67
2021/12/07 07:07:09;;;;;;;32.10;10.70;;;;;2.70;95601.00;;;;8380397;28;20230;-68
2021/12/07 07:11:12;;;;;;;31.60;11.13;;;;;2.80;95604.00;;;;8377229;28;20269;-70
2021/12/07 07:15:19;;;;;;;34.27;10.47;;;;;2.80;95613.00;;;;8373722;28;20237;-71
2021/12/07 07:19:24;;;;;;;38.33;11.80;;;;;2.80;95606.00;;;;8386100;28;20247;-73
2021/12/07 07:23:27;;;;;;;28.20;10.27;;;;;2.90;95608.00;;;;8380428;28;20264;-71
2021/12/07 07:27:31;;;;;;;30.00;10.07;;;;;2.90;95610.00;;;;8377524;28;20222;-72
2021/12/07 07:31:36;;;;;;;27.03;9.50;;;;;2.90;95617.00;;;;8381366;28;20261;-73
2021/12/07 07:35:42;;;;;;;29.93;9.20;;;;;2.90;95622.00;;;;8378895;28;20588;-72
2021/12/07 07:39:45;;;;;;;53.23;15.47;;;;;2.90;95621.00;;;;8382881;28;20676;-73
2021/12/07 07:43:49;;;;;;;34.70;9.37;;;;;2.90;95625.00;;;;8380840;28;20232;-73
2021/12/07 07:47:52;;;;;;;29.20;10.30;;;;;3.00;95622.00;;;;8378001;28;20267;-72
2021/12/07 07:51:57;;;;;;;28.50;8.80;;;;;3.00;95638.00;;;;8383063;28;20730;-74
2021/12/07 07:56:00;;;;;;;23.23;8.20;;;;;3.10;95640.00;;;;8377974;28;20270;-72
2021/12/07 08:00:06;;;;;;;40.33;9.10;;;;;3.10;95639.00;;;;8381503;28;20251;-72
2021/12/07 08:04:10;;;;;;;30.13;8.93;;;;;3.00;95645.00;;;;8371538;28;20242;-73
2021/12/07 08:08:15;;;;;;;20.57;8.03;;;;;3.10;95642.00;;;;8379583;28;20249;-74
2021/12/07 08:12:18;;;;;;;16.90;6.07;;;;;3.10;95656.00;;;;8379586;28;20225;-73
2021/12/07 08:16:22;;;;;;;21.43;7.07;;;;;3.20;95651.00;;;;8380881;28;20936;-73
2021/12/07 08:20:25;;;;;;;10.00;5.27;;;;;3.20;95652.00;;;;8378218;28;20226;-69
2021/12/07 08:24:30;;;;;;;11.83;5.43;;;;;3.20;95661.00;;;;8380994;28;20227;-74
2021/12/07 08:28:34;;;;;;;13.93;5.30;;;;;3.30;95654.00;;;;8379620;28;20319;-70
2021/12/07 08:32:39;;;;;;;17.50;5.43;;;;;3.30;95663.00;;;;8369416;28;20257;-70
2021/12/07 08:36:42;;;;;;;9.10;4.17;;;;;3.30;95663.00;;;;8371409;28;20225;-69
2021/12/07 08:40:53;;;;;;;7.60;4.37;;;;;3.30;95662.00;;;;8375726;28;20309;-72
2021/12/07 08:44:57;;;;;;;8.73;5.00;;;;;3.30;95662.00;;;;8377505;28;20271;-69
2021/12/07 08:49:00;;;;;;;9.13;4.57;;;;;3.40;95671.00;;;;8370471;28;21025;-71
2021/12/07 08:53:07;;;;;;;9.70;3.63;;;;;3.50;95682.00;;;;8376482;28;20350;-77
2021/12/07 09:01:33;;;;;;;6.83;3.53;;;;;3.60;95691.00;;;;8377226;28;20255;-72
2021/12/07 09:05:38;;;;;;;21.83;8.37;;;;;3.70;95690.00;;;;8373269;28;20228;-74
2021/12/07 09:09:43;;;;;;;9.40;3.80;;;;;3.70;95704.00;;;;8374610;28;20565;-81
2021/12/07 09:13:48;;;;;;;12.47;3.90;;;;;3.60;95720.00;;;;8373403;28;20236;-74
2021/12/07 09:17:51;;;;;;;7.40;2.90;;;;;3.60;95725.00;;;;8378157;28;20251;-75
2021/12/07 09:21:55;;;;;;;5.20;2.83;;;;;3.50;95725.00;;;;8372647;28;20255;-75
2021/12/07 09:26:10;;;;;;;7.53;3.07;;;;;3.60;95727.00;;;;8371511;28;20237;-73
2021/12/07 09:30:17;;;;;;;4.57;2.63;;;;;3.50;95726.00;;;;8371891;28;20253;-74
2021/12/07 09:34:23;;;;;;;8.20;4.20;;;;;3.40;95709.00;;;;8379049;28;20233;-72
2021/12/07 09:38:26;;;;;;;99.10;23.73;;;;;3.50;95723.00;;;;8373810;28;20312;-70
2021/12/07 09:42:30;;;;;;;148.00;27.53;;;;;3.50;95720.00;;;;8372425;28;20713;-73
2021/12/07 09:46:35;;;;;;;51.37;13.23;;;;;3.60;95726.00;;;;8373543;28;20230;-73
2021/12/07 09:50:40;;;;;;;54.20;15.37;;;;;3.70;95730.00;;;;8378312;28;20345;-75
2021/12/07 09:54:43;;;;;;;73.63;18.20;;;;;3.80;95730.00;;;;8376816;28;20257;-72
2021/12/07 09:58:49;;;;;;;61.63;19.23;;;;;3.80;95726.00;;;;8368632;28;20228;-72
2021/12/07 10:02:55;;;;;;;17.20;7.30;;;;;3.90;95717.00;;;;8370749;28;20261;-73
2021/12/07 10:06:58;;;;;;;13.67;6.00;;;;;3.90;95720.00;;;;8378718;28;20704;-72
2021/12/07 10:11:05;;;;;;;14.10;5.63;;;;;3.90;95730.00;;;;8376242;28;20236;-73
2021/12/07 10:15:10;;;;;;;6.43;3.03;;;;;3.90;95726.00;;;;8375474;28;20295;-74
2021/12/07 10:19:27;;;;;;;4.77;2.80;;;;;3.90;95722.00;;;;8378369;28;20223;-74
2021/12/07 10:23:33;;;;;;;7.63;3.10;;;;;3.90;95731.00;;;;8382268;28;20262;-73
2021/12/07 10:27:40;;;;;;;5.17;3.50;;;;;3.90;95724.00;;;;8383915;28;20272;-74
2021/12/07 10:31:46;;;;;;;5.10;2.33;;;;;3.90;95725.00;;;;8382086;28;20253;-74
2021/12/07 10:35:53;;;;;;;11.07;3.10;;;;;3.90;95737.00;;;;8383274;28;20941;-74
2021/12/07 10:39:56;;;;;;;10.47;4.43;;;;;3.90;95731.00;;;;8382784;28;20309;-75
2021/12/07 10:44:05;;;;;;;9.23;3.33;;;;;3.90;95733.00;;;;8380936;28;20250;-76
2021/12/07 10:48:22;;;;;;;10.40;3.20;;;;;4.00;95723.00;;;;8373425;28;20247;-74
2021/12/07 10:52:29;;;;;;;7.53;3.10;;;;;4.00;95730.00;;;;8379465;28;20219;-73
2021/12/07 10:56:34;;;;;;;5.23;2.67;;;;;4.00;95731.00;;;;8381302;28;20245;-73
2021/12/07 11:00:41;;;;;;;4.63;2.60;;;;;4.00;95729.00;;;;8382737;28;20250;-74
2021/12/07 11:04:46;;;;;;;7.73;2.70;;;;;4.00;95740.00;;;;8377201;28;20558;-74
2021/12/07 11:08:57;;;;;;;7.27;2.83;;;;;4.10;95733.00;;;;8375326;28;20231;-74
2021/12/07 11:13:08;;;;;;;5.27;3.03;;;;;4.10;95740.00;;;;8379406;28;20265;-73
2021/12/07 11:17:11;;;;;;;3.60;2.67;;;;;4.10;95742.00;;;;8375683;28;20223;-72
2021/12/07 11:21:17;;;;;;;8.73;2.90;;;;;4.20;95742.00;;;;8378580;28;20261;-74
2021/12/07 11:25:53;;;;;;;3.73;2.67;;;;;4.30;95745.00;;;;8379953;28;20656;-73
2021/12/07 11:30:00;;;;;;;4.40;2.77;;;;;4.40;95750.00;;;;8379204;28;20234;-74
2021/12/07 11:34:09;;;;;;;15.20;5.90;;;;;4.40;95743.00;;;;8380150;28;20257;-74
2021/12/07 11:38:12;;;;;;;25.83;9.67;;;;;4.40;95745.00;;;;8383860;28;20715;-74
2021/12/07 11:42:20;;;;;;;8.07;4.53;;;;;4.50;95741.00;;;;8376227;28;20311;-75
2021/12/07 11:46:28;;;;;;;72.33;29.50;;;;;4.80;95744.00;;;;8376971;28;20257;-74
2021/12/07 11:50:36;;;;;;;131.97;54.30;;;;;5.10;95735.00;;;;8375364;28;20608;-74
2021/12/07 11:54:42;;;;;;;24.07;7.77;;;;;5.20;95735.00;;;;8378350;28;20266;-75
2021/12/07 11:58:47;;;;;;;11.77;7.13;;;;;5.10;95723.00;;;;8385072;28;20318;-75
2021/12/07 12:03:13;;;;;;;7.33;4.20;;;;;5.10;95727.00;;;;8376649;28;20717;-75
2021/12/07 12:07:19;;;;;;;14.00;3.90;;;;;5.10;95734.00;;;;8379348;28;20246;-76
2021/12/07 12:11:30;;;;;;;24.07;14.27;;;;;5.10;95749.00;;;;8373138;28;20231;-76
2021/12/07 12:15:55;;;;;;;13.97;7.30;;;;;5.00;95759.00;;;;8379615;28;20251;-76
2021/12/07 12:20:23;;;;;;;20.27;7.83;;;;;4.90;95753.00;;;;8377158;28;20281;-78
2021/12/07 12:24:34;;;;;;;8.53;4.73;;;;;4.90;95758.00;;;;8378767;28;20255;-77
2021/12/07 12:28:40;;;;;;;15.67;5.10;;;;;4.80;95760.00;;;;8374256;28;20258;-78
2021/12/07 12:32:47;;;;;;;8.63;3.67;;;;;4.80;95758.00;;;;8377282;28;20342;-77
2021/12/07 12:37:16;;;;;;;8.67;3.10;;;;;4.80;95764.00;;;;8374030;28;20259;-74
2021/12/07 12:41:19;;;;;;;5.90;4.00;;;;;4.70;95762.00;;;;8369784;28;20244;-76
2021/12/07 12:45:27;;;;;;;11.57;5.27;;;;;4.60;95758.00;;;;8374983;28;20265;-77
2021/12/07 12:49:39;;;;;;;9.70;3.80;;;;;4.60;95757.00;;;;8376777;28;20610;-78
2021/12/07 12:53:44;;;;;;;7.93;3.83;;;;;4.60;95756.00;;;;8377176;28;20221;-77
2021/12/07 12:57:50;;;;;;;7.83;3.70;;;;;4.60;95754.00;;;;8368309;28;20259;-78
2021/12/07 13:01:57;;;;;;;9.77;3.37;;;;;4.70;95750.00;;;;8371163;28;20251;-77
2021/12/07 13:06:02;;;;;;;8.03;2.80;;;;;4.80;95753.00;;;;8378043;28;20307;-77
2021/12/07 13:10:07;;;;;;;10.63;2.93;;;;;4.90;95753.00;;;;8375166;28;20251;-76
2021/12/07 13:14:13;;;;;;;10.53;3.20;;;;;4.90;95744.00;;;;8380841;28;20229;-76
2021/12/07 13:18:23;;;;;;;5.73;2.50;;;;;4.90;95744.00;;;;8368946;28;20693;-77
2021/12/07 13:22:35;;;;;;;9.60;2.93;;;;;4.90;95739.00;;;;8378421;28;20222;-77
2021/12/07 13:26:41;;;;;;;5.20;2.77;;;;;5.00;95752.00;;;;8367265;28;20226;-77
2021/12/07 13:30:51;;;;;;;7.83;3.17;;;;;5.10;95750.00;;;;8375193;28;20275;-76
2021/12/07 13:35:01;;;;;;;7.47;2.73;;;;;5.20;95744.00;;;;8372862;28;20232;-77
2021/12/07 13:39:31;;;;;;;7.80;2.70;;;;;5.10;95738.00;;;;8374409;28;20238;-79
2021/12/07 13:43:38;;;;;;;9.37;2.57;;;;;4.90;95753.00;;;;8367367;28;20230;-77
2021/12/07 13:47:43;;;;;;;13.23;2.70;;;;;4.60;95751.00;;;;8368215;28;20261;-81
2021/12/07 13:51:48;;;;;;;6.10;2.30;;;;;4.50;95762.00;;;;8364076;28;20243;-75
2021/12/07 13:55:53;;;;;;;10.77;2.90;;;;;4.30;95764.00;;;;8368570;28;20675;-73
2021/12/07 13:59:58;;;;;;;9.03;2.90;;;;;4.20;95769.00;;;;8368884;28;20265;-73
2021/12/07 14:04:03;;;;;;;13.93;3.17;;;;;4.20;95764.00;;;;8372289;28;20237;-73
2021/12/07 14:08:08;;;;;;;9.27;2.57;;;;;4.20;95768.00;;;;8372335;28;20818;-73
2021/12/07 14:12:13;;;;;;;11.47;3.03;;;;;4.20;95754.00;;;;8367092;28;20254;-72
2021/12/07 14:16:23;;;;;;;17.73;3.50;;;;;4.30;95748.00;;;;8370102;28;20301;-73
2021/12/07 14:20:34;;;;;;;9.53;3.10;;;;;4.30;95765.00;;;;8376404;28;20230;-73
2021/12/07 14:24:38;;;;;;;8.77;3.10;;;;;4.40;95767.00;;;;8374675;28;20254;-73
2021/12/07 14:28:45;;;;;;;6.10;2.70;;;;;4.50;95759.00;;;;8370701;28;20318;-74
2021/12/07 14:32:48;;;;;;;10.00;3.23;;;;;4.60;95764.00;;;;8367287;28;22111;-74
2021/12/07 14:36:53;;;;;;;9.40;3.13;;;;;4.60;95767.00;;;;8370578;28;20278;-74
2021/12/07 14:40:57;;;;;;;12.90;3.00;;;;;4.60;95769.00;;;;8374487;28;20241;-73
2021/12/07 14:45:01;;;;;;;11.67;2.90;;;;;4.60;95762.00;;;;8374311;28;20247;-74
2021/12/07 14:49:05;;;;;;;9.63;2.83;;;;;4.50;95763.00;;;;8373774;28;20228;-74
2021/12/07 14:53:08;;;;;;;15.37;3.93;;;;;4.40;95762.00;;;;8376193;28;20318;-74
2021/12/07 14:57:12;;;;;;;5.40;2.90;;;;;4.40;95773.00;;;;8379003;28;20747;-74
2021/12/07 15:01:18;;;;;;;32.70;7.63;;;;;4.30;95774.00;;;;8364690;28;20313;-75
2021/12/07 15:05:22;;;;;;;58.93;20.47;;;;;4.30;95774.00;;;;8374600;28;20236;-74
2021/12/07 15:09:27;;;;;;;15.20;6.27;;;;;4.20;95768.00;;;;8378629;28;20250;-74
2021/12/07 15:13:32;;;;;;;24.93;10.47;;;;;4.20;95763.00;;;;8370643;28;20223;-78
2021/12/07 15:17:40;;;;;;;14.33;6.63;;;;;4.20;95766.00;;;;8382516;28;20316;-78
2021/12/07 15:21:44;;;;;;;22.93;9.80;;;;;4.10;95760.00;;;;8371850;28;20711;-75
2021/12/07 15:25:50;;;;;;;15.63;5.87;;;;;4.00;95748.00;;;;8379071;28;20262;-73
2021/12/07 15:29:55;;;;;;;123.93;47.20;;;;;4.00;95764.00;;;;8392241;28;20669;-83
2021/12/07 15:34:01;;;;;;;46.93;16.93;;;;;3.90;95758.00;;;;8388815;28;20229;-83
2021/12/07 15:38:04;;;;;;;176.93;72.10;;;;;3.90;95768.00;;;;8371590;28;20700;-81
2021/12/07 15:42:10;;;;;;;184.47;67.77;;;;;3.80;95759.00;;;;8383140;28;20253;-83
2021/12/07 15:46:16;;;;;;;26.77;12.27;;;;;3.80;95749.00;;;;8379375;28;20298;-83
2021/12/07 15:50:22;;;;;;;13.87;4.80;;;;;3.80;95747.00;;;;8380821;28;20214;-83
2021/12/07 15:54:26;;;;;;;15.67;5.13;;;;;3.80;95748.00;;;;8374775;28;20229;-80
2021/12/07 15:58:53;;;;;;;12.83;5.70;;;;;3.80;95740.00;;;;8377637;28;20875;-80
2021/12/07 16:03:02;;;;;;;27.50;12.47;;;;;3.80;95755.00;;;;8371078;28;20242;-82
2021/12/07 16:07:24;;;;;;;9.63;4.97;;;;;3.70;95742.00;;;;8367143;28;20584;-79
2021/12/07 16:11:27;;;;;;;15.60;7.77;;;;;3.60;95736.00;;;;8371668;28;20249;-82
2021/12/07 16:15:31;;;;;;;12.03;4.50;;;;;3.60;95737.00;;;;8371507;28;20248;-79
2021/12/07 16:19:37;;;;;;;11.80;4.90;;;;;3.50;95721.00;;;;8368952;28;20234;-77
2021/12/07 16:23:46;;;;;;;15.67;4.60;;;;;3.50;95721.00;;;;8371689;28;20242;-79
2021/12/07 16:27:50;;;;;;;10.20;5.20;;;;;3.40;95708.00;;;;8375119;28;20221;-80
2021/12/07 16:31:59;;;;;;;19.20;5.17;;;;;3.40;95708.00;;;;8374418;28;20656;-80
2021/12/07 16:36:03;;;;;;;12.53;4.90;;;;;3.40;95698.00;;;;8377589;28;20806;-78
2021/12/07 16:40:12;;;;;;;17.00;6.10;;;;;3.30;95702.00;;;;8378930;28;20254;-77
2021/12/07 16:44:15;;;;;;;64.77;15.47;;;;;3.30;95693.00;;;;8375037;28;20844;-79
2021/12/07 16:48:18;;;;;;;8.17;4.30;;;;;3.20;95693.00;;;;8378085;28;20269;-80
2021/12/07 16:52:22;;;;;;;11.10;5.20;;;;;3.10;95687.00;;;;8376782;28;20253;-80
2021/12/07 16:56:27;;;;;;;13.37;4.47;;;;;3.00;95680.00;;;;8376850;28;20321;-80
2021/12/07 17:00:33;;;;;;;10.87;5.00;;;;;2.90;95679.00;;;;8375166;28;20275;-78
2021/12/07 17:04:37;;;;;;;13.53;4.93;;;;;2.70;95674.00;;;;8377935;28;20230;-81
2021/12/07 17:08:41;;;;;;;9.67;5.10;;;;;2.50;95670.00;;;;8380542;28;20271;-82
2021/12/07 17:12:47;;;;;;;8.67;5.77;;;;;2.30;95660.00;;;;8375122;28;20241;-76
2021/12/07 17:16:50;;;;;;;17.90;7.07;;;;;2.10;95656.00;;;;8358850;28;20931;-76
2021/12/07 17:20:54;;;;;;;10.03;5.07;;;;;1.90;95657.00;;;;8372080;28;20243;-76
2021/12/07 17:24:57;;;;;;;14.90;6.57;;;;;1.70;95657.00;;;;8365440;28;20245;-77
2021/12/07 17:29:02;;;;;;;12.53;6.00;;;;;1.50;95648.00;;;;8373533;28;20241;-76
2021/12/07 17:33:06;;;;;;;9.83;5.77;;;;;1.30;95647.00;;;;8372581;28;20947;-75
2021/12/07 17:37:09;;;;;;;14.37;6.73;;;;;1.10;95636.00;;;;8373646;28;20235;-77
2021/12/07 17:41:13;;;;;;;17.60;4.80;;;;;1.00;95639.00;;;;8368667;28;20266;-74
2021/12/07 17:45:20;;;;;;;13.67;6.10;;;;;0.80;95628.00;;;;8371830;28;20233;-74
2021/12/07 17:49:24;;;;;;;14.20;4.50;;;;;0.70;95615.00;;;;8371396;28;20236;-75
2021/12/07 17:53:28;;;;;;;9.63;4.57;;;;;0.60;95599.00;;;;8371837;28;20252;-76
2021/12/07 17:57:31;;;;;;;14.43;5.17;;;;;0.40;95601.00;;;;8371756;28;20225;-74
2021/12/07 18:01:36;;;;;;;16.20;6.00;;;;;0.30;95590.00;;;;8369648;28;20263;-76
2021/12/07 18:05:40;;;;;;;10.73;5.60;;;;;0.60;95580.00;;;;8375368;28;20581;-76
2021/12/07 18:09:45;;;;;;;15.37;6.00;;;;;0.70;95569.00;;;;8372744;28;20260;-75
2021/12/07 18:13:49;;;;;;;10.20;5.70;;;;;0.70;95564.00;;;;8377081;28;20228;-75
2021/12/07 18:17:54;;;;;;;11.57;6.47;;;;;0.60;95564.00;;;;8375824;28;20700;-77
2021/12/07 18:21:57;;;;;;;14.00;6.23;;;;;0.50;95560.00;;;;8374109;28;20231;-77
2021/12/07 18:26:08;;;;;;;16.60;5.93;;;;;0.40;95553.00;;;;8377798;28;20259;-79
2021/12/07 18:30:18;;;;;;;24.00;6.50;;;;;0.30;95565.00;;;;8382614;28;20787;-74
2021/12/07 18:34:22;;;;;;;13.80;6.50;;;;;0.20;95552.00;;;;8377505;28;20247;-75
2021/12/07 18:38:27;;;;;;;15.00;7.00;;;;;0.10;95557.00;;;;8382323;28;20990;-73
2021/12/07 18:42:30;;;;;;;13.47;6.87;;;;;0.10;95566.00;;;;8377142;28;20285;-75
2021/12/07 18:46:37;;;;;;;15.43;8.03;;;;;0.00;95570.00;;;;8381533;28;20233;-72
2021/12/07 18:50:42;;;;;;;14.70;6.80;;;;;0.00;95558.00;;;;8376256;28;20255;-76
2021/12/07 18:54:47;;;;;;;11.47;5.30;;;;;-0.10;95560.00;;;;8379730;28;20255;-74
2021/12/07 18:58:50;;;;;;;15.47;6.07;;;;;-0.10;95548.00;;;;8381545;28;20668;-73
2021/12/07 19:02:53;;;;;;;18.60;5.73;;;;;-0.20;95543.00;;;;8382215;28;20255;-76
2021/12/07 19:07:00;;;;;;;13.07;6.10;;;;;-0.30;95535.00;;;;8382055;28;20534;-75
2021/12/07 19:11:04;;;;;;;11.67;6.17;;;;;-0.40;95529.00;;;;8382376;28;20819;-75
2021/12/07 19:15:09;;;;;;;14.13;6.03;;;;;-0.50;95525.00;;;;8378523;28;20224;-72
2021/12/07 19:19:14;;;;;;;22.37;7.27;;;;;-0.50;95521.00;;;;8377962;28;20318;-73
2021/12/07 19:23:21;;;;;;;21.30;8.10;;;;;-0.50;95525.00;;;;8387742;28;20254;-72
2021/12/07 19:27:25;;;;;;;21.23;9.30;;;;;-0.50;95521.00;;;;8379838;28;20232;-74
2021/12/07 19:31:29;;;;;;;12.57;6.83;;;;;-0.30;95515.00;;;;8376702;28;20216;-73
2021/12/07 19:35:34;;;;;;;21.27;8.23;;;;;-0.10;95513.00;;;;8380637;28;20279;-73
2021/12/07 19:39:40;;;;;;;35.07;11.47;;;;;0.10;95504.00;;;;8378385;28;20237;-72
2021/12/07 19:43:44;;;;;;;92.80;39.10;;;;;0.40;95501.00;;;;5943237;28;10000714;-75
2021/12/07 19:47:50;;;;;;;28.67;14.30;;;;;0.70;95498.00;;;;8378751;28;20217;-73
2021/12/07 19:51:54;;;;;;;27.67;11.40;;;;;1.00;95486.00;;;;8382959;28;20731;-74
2021/12/07 19:56:02;;;;;;;18.83;9.23;;;;;1.10;95497.00;;;;8377803;28;20976;-74
2021/12/07 20:00:09;;;;;;;14.17;7.63;;;;;1.20;95484.00;;;;8375370;28;20238;-73
2021/12/07 20:04:16;;;;;;;17.20;7.37;;;;;1.40;95479.00;;;;8371307;28;20698;-73
2021/12/07 20:08:21;;;;;;;27.33;10.20;;;;;1.40;95469.00;;;;8380697;28;20240;-74
2021/12/07 20:12:28;;;;;;;33.80;17.50;;;;;1.40;95473.00;;;;8373682;28;20216;-74
2021/12/07 20:16:32;;;;;;;21.93;12.60;;;;;1.40;95467.00;;;;8374491;28;20681;-73
2021/12/07 20:20:37;;;;;;;30.53;15.03;;;;;1.50;95466.00;;;;8373395;28;20250;-76
2021/12/07 20:24:43;;;;;;;18.03;8.53;;;;;1.60;95460.00;;;;8373011;28;20235;-74
2021/12/07 20:28:49;;;;;;;14.47;7.93;;;;;1.60;95463.00;;;;8378899;28;20287;-76
2021/12/07 20:32:54;;;;;;;15.90;8.27;;;;;1.60;95447.00;;;;8369751;28;20269;-75
2021/12/07 20:37:00;;;;;;;15.00;7.00;;;;;1.70;95444.00;;;;8378049;28;20284;-74
2021/12/07 20:41:05;;;;;;;19.80;7.27;;;;;1.70;95438.00;;;;8380451;28;20223;-75
2021/12/07 20:45:12;;;;;;;17.37;7.20;;;;;1.80;95427.00;;;;8376738;28;20335;-75
2021/12/07 20:49:18;;;;;;;17.63;7.23;;;;;1.80;95424.00;;;;8374390;28;20229;-75
2021/12/07 20:53:22;;;;;;;21.67;8.00;;;;;1.80;95416.00;;;;8377795;28;20228;-75
2021/12/07 20:57:27;;;;;;;20.53;8.07;;;;;1.90;95402.00;;;;8374911;28;20627;-74
2021/12/07 21:01:33;;;;;;;15.77;8.87;;;;;1.80;95401.00;;;;8377346;28;20972;-76
2021/12/07 21:05:38;;;;;;;19.30;7.73;;;;;1.80;95392.00;;;;8367718;28;20225;-74
2021/12/07 21:09:55;;;;;;;18.57;7.47;;;;;1.80;95383.00;;;;8372330;28;20881;-74
2021/12/07 21:13:59;;;;;;;26.07;8.60;;;;;1.80;95382.00;;;;8379361;28;20220;-73
2021/12/07 21:18:06;;;;;;;17.63;7.87;;;;;1.80;95367.00;;;;8374003;28;20303;-72
2021/12/07 21:22:10;;;;;;;26.80;7.83;;;;;1.80;95368.00;;;;8370610;28;20232;-74
2021/12/07 21:26:15;;;;;;;16.13;7.77;;;;;1.90;95360.00;;;;8374028;28;20293;-74
2021/12/07 21:30:34;;;;;;;19.10;7.97;;;;;1.90;95360.00;;;;8374805;28;20244;-74
2021/12/07 21:34:41;;;;;;;16.80;7.50;;;;;2.00;95348.00;;;;8379114;28;20308;-74
2021/12/07 21:38:45;;;;;;;20.07;7.67;;;;;2.00;95335.00;;;;8367891;28;20304;-74
2021/12/07 21:42:48;;;;;;;16.93;7.93;;;;;2.00;95312.00;;;;8372714;28;20225;-74
2021/12/07 21:46:53;;;;;;;16.07;7.00;;;;;1.90;95322.00;;;;8369351;28;20722;-74